createdAt,value
2023-04-09T00:01:13.049Z,23.91
2023-04-09T00:03:44.158Z,24.74
2023-04-09T00:06:15.835Z,24.77
2023-04-09T00:08:47.111Z,26.43
2023-04-09T00:11:18.366Z,24.94
2023-04-09T00:13:49.974Z,25.41
2023-04-09T00:16:21.041Z,24.99
2023-04-09T00:18:52.405Z,23.87
2023-04-09T00:21:23.814Z,23.86
2023-04-09T00:23:54.771Z,23.89
2023-04-09T00:26:26.416Z,23.44
2023-04-09T00:28:57.529Z,23.83
2023-04-09T00:31:28.880Z,23.39
2023-04-09T00:34:00.236Z,23.75
2023-04-09T00:36:32.596Z,23.89
2023-04-09T00:39:04.170Z,23.56
2023-04-09T00:41:35.039Z,23.24
2023-04-09T00:44:06.582Z,23.72
2023-04-09T00:46:40.945Z,23.28
2023-04-09T00:49:12.226Z,24.16
2023-04-09T00:51:43.795Z,24.62
2023-04-09T00:54:15.487Z,24.97
2023-04-09T00:56:47.543Z,24.64
2023-04-09T00:59:18.770Z,24.89
2023-04-09T01:01:50.108Z,23.84
2023-04-09T01:04:22.084Z,24.57
2023-04-09T01:07:04.538Z,23.56
2023-04-09T01:09:59.833Z,24.06
2023-04-09T01:13:00.160Z,24.21
2023-04-09T01:15:36.075Z,24.57
2023-04-09T01:18:21.466Z,24.54
2023-04-09T01:21:16.514Z,24.22
2023-04-09T01:24:02.772Z,25.11
2023-04-09T01:27:08.840Z,24.70
2023-04-09T01:30:07.940Z,24.25
2023-04-09T01:32:41.339Z,23.96
2023-04-09T01:35:12.557Z,23.44
2023-04-09T01:37:44.463Z,23.74
2023-04-09T01:40:15.582Z,23.27
2023-04-09T01:42:46.679Z,22.96
2023-04-09T01:45:18.824Z,22.61
2023-04-09T01:47:50.570Z,22.94
2023-04-09T01:50:22.163Z,23.11
2023-04-09T01:52:52.952Z,23.53
2023-04-09T01:55:24.128Z,23.80
2023-04-09T01:57:55.386Z,23.18
2023-04-09T02:00:33.600Z,23.17
2023-04-09T02:03:17.416Z,23.19
2023-04-09T02:05:58.332Z,23.09
2023-04-09T02:08:32.582Z,22.84
2023-04-09T02:11:06.856Z,23.15
2023-04-09T02:13:39.993Z,23.00
2023-04-09T02:16:31.404Z,23.11
2023-04-09T02:19:04.353Z,23.00
2023-04-09T02:21:35.992Z,22.77
2023-04-09T02:24:07.463Z,22.88
2023-04-09T02:26:38.597Z,22.51
2023-04-09T02:29:09.588Z,22.93
2023-04-09T02:31:41.064Z,22.66
2023-04-09T02:34:12.454Z,22.65
2023-04-09T02:36:43.592Z,22.73
2023-04-09T02:39:15.366Z,22.70
2023-04-09T02:41:46.649Z,22.65
2023-04-09T02:44:17.901Z,22.60
2023-04-09T02:46:54.189Z,22.50
2023-04-09T02:49:25.354Z,22.52
2023-04-09T02:52:01.819Z,22.61
2023-04-09T02:54:32.965Z,22.67
2023-04-09T02:57:04.084Z,22.71
2023-04-09T02:59:37.272Z,22.51
2023-04-09T03:02:08.540Z,22.58
2023-04-09T03:04:39.830Z,22.56
2023-04-09T03:07:11.079Z,22.35
2023-04-09T03:09:42.171Z,22.60
2023-04-09T03:12:13.455Z,22.58
2023-04-09T03:14:44.755Z,22.52
2023-04-09T03:17:15.630Z,22.39
2023-04-09T03:19:47.397Z,22.44
2023-04-09T03:22:19.877Z,22.19
2023-04-09T03:24:54.604Z,22.01
2023-04-09T03:27:26.246Z,22.11
2023-04-09T03:29:59.646Z,21.97
2023-04-09T03:32:38.512Z,21.89
2023-04-09T03:35:10.880Z,21.95
2023-04-09T03:37:43.901Z,21.90
2023-04-09T03:40:20.392Z,21.71
2023-04-09T03:42:51.567Z,21.48
2023-04-09T03:45:22.762Z,21.32
2023-04-09T03:47:57.463Z,21.14
2023-04-09T03:50:29.606Z,21.08
2023-04-09T03:53:01.227Z,21.01
2023-04-09T03:55:32.856Z,20.91
2023-04-09T03:58:07.598Z,20.81
2023-04-09T04:00:40.441Z,20.85
2023-04-09T04:03:32.457Z,20.92
2023-04-09T04:06:42.210Z,20.73
2023-04-09T04:09:28.039Z,20.64
2023-04-09T04:12:04.744Z,20.68
2023-04-09T04:14:54.922Z,20.71
2023-04-09T04:17:48.485Z,20.66
2023-04-09T04:20:46.271Z,20.63
2023-04-09T04:23:21.313Z,20.61
2023-04-09T04:25:59.574Z,20.53
2023-04-09T04:28:39.397Z,20.57
2023-04-09T04:31:13.983Z,20.53
2023-04-09T04:33:45.388Z,20.51
2023-04-09T04:36:18.720Z,20.35
2023-04-09T04:38:53.698Z,20.37
2023-04-09T04:41:40.251Z,20.08
2023-04-09T04:44:19.355Z,20.14
2023-04-09T04:46:54.323Z,20.09
2023-04-09T04:49:25.453Z,20.13
2023-04-09T04:51:56.866Z,20.11
2023-04-09T04:54:28.692Z,20.19
2023-04-09T04:57:02.597Z,20.12
2023-04-09T04:59:43.561Z,20.30
2023-04-09T05:02:17.167Z,20.19
2023-04-09T05:05:06.798Z,20.22
2023-04-09T05:07:43.662Z,20.14
2023-04-09T05:10:15.113Z,20.09
2023-04-09T05:12:47.337Z,20.08
2023-04-09T05:15:26.684Z,20.13
2023-04-09T05:17:57.910Z,19.86
2023-04-09T05:20:30.272Z,19.86
2023-04-09T05:23:14.061Z,19.91
2023-04-09T05:25:51.640Z,19.80
2023-04-09T05:28:34.893Z,19.68
2023-04-09T05:31:19.714Z,19.85
2023-04-09T05:34:01.785Z,19.62
2023-04-09T05:36:44.366Z,19.53
2023-04-09T05:39:18.800Z,19.48
2023-04-09T05:41:50.529Z,19.52
2023-04-09T05:45:00.010Z,19.60
2023-04-09T05:47:35.791Z,19.60
2023-04-09T05:50:19.121Z,19.55
2023-04-09T05:52:53.695Z,19.54
2023-04-09T05:55:29.307Z,19.45
2023-04-09T05:58:03.483Z,19.40
2023-04-09T06:00:35.097Z,19.48
2023-04-09T06:03:07.567Z,19.42
2023-04-09T06:05:38.871Z,19.35
2023-04-09T06:08:11.210Z,19.40
2023-04-09T06:10:42.444Z,19.31
2023-04-09T06:13:14.090Z,19.34
2023-04-09T06:15:44.759Z,19.38
2023-04-09T06:18:15.704Z,19.25
2023-04-09T06:20:47.044Z,19.26
2023-04-09T06:23:19.030Z,19.29
2023-04-09T06:25:50.241Z,19.21
2023-04-09T06:28:21.816Z,19.30
2023-04-09T06:30:53.119Z,19.25
2023-04-09T06:33:24.163Z,19.41
2023-04-09T06:35:55.651Z,19.37
2023-04-09T06:38:26.833Z,19.32
2023-04-09T06:40:59.120Z,19.44
2023-04-09T06:43:30.333Z,19.38
2023-04-09T06:46:02.353Z,19.26
2023-04-09T06:48:33.628Z,19.14
2023-04-09T06:51:05.026Z,19.05
2023-04-09T06:53:36.211Z,19.00
2023-04-09T06:56:07.615Z,19.03
2023-04-09T06:58:39.038Z,18.92
2023-04-09T07:01:10.222Z,18.88
2023-04-09T07:03:42.127Z,18.87
2023-04-09T07:06:14.148Z,18.85
2023-04-09T07:08:45.516Z,18.92
2023-04-09T07:11:18.618Z,18.89
2023-04-09T07:13:49.902Z,18.80
2023-04-09T07:16:20.890Z,18.86
2023-04-09T07:18:52.219Z,18.76
2023-04-09T07:21:23.435Z,18.77
2023-04-09T07:23:55.385Z,18.73
2023-04-09T07:26:26.588Z,18.79
2023-04-09T07:28:58.108Z,18.80
2023-04-09T07:31:29.070Z,18.71
2023-04-09T07:34:00.437Z,18.68
2023-04-09T07:36:33.249Z,18.72
2023-04-09T07:39:04.874Z,18.56
2023-04-09T07:41:36.078Z,18.64
2023-04-09T07:44:08.224Z,18.68
2023-04-09T07:46:41.077Z,18.60
2023-04-09T07:49:12.542Z,18.46
2023-04-09T07:51:43.837Z,18.43
2023-04-09T07:54:15.177Z,18.41
2023-04-09T07:56:46.320Z,18.40
2023-04-09T07:59:17.726Z,18.32
2023-04-09T08:01:48.988Z,18.29
2023-04-09T08:04:20.501Z,18.25
2023-04-09T08:06:52.636Z,18.22
2023-04-09T08:09:24.174Z,18.08
2023-04-09T08:11:55.080Z,18.08
2023-04-09T08:14:26.028Z,18.03
2023-04-09T08:16:57.903Z,18.01
2023-04-09T08:19:28.997Z,17.96
2023-04-09T08:22:00.262Z,17.90
2023-04-09T08:24:33.994Z,17.86
2023-04-09T08:27:06.401Z,17.85
2023-04-09T08:29:37.903Z,17.79
2023-04-09T08:32:09.641Z,17.78
2023-04-09T08:34:40.939Z,17.72
2023-04-09T08:37:12.443Z,17.47
2023-04-09T08:39:43.934Z,17.52
2023-04-09T08:42:17.632Z,17.60
2023-04-09T08:44:49.152Z,17.62
2023-04-09T08:47:22.046Z,17.68
2023-04-09T08:49:53.365Z,17.63
2023-04-09T08:52:36.194Z,17.51
2023-04-09T08:55:07.879Z,17.53
2023-04-09T08:57:43.054Z,17.44
2023-04-09T09:00:14.806Z,17.56
2023-04-09T09:03:09.749Z,17.48
2023-04-09T09:05:46.168Z,17.58
2023-04-09T09:08:26.618Z,17.58
2023-04-09T09:10:57.712Z,17.52
2023-04-09T09:13:30.226Z,17.52
2023-04-09T09:16:18.096Z,17.51
2023-04-09T09:18:50.597Z,17.48
2023-04-09T09:21:23.014Z,17.52
2023-04-09T09:23:54.154Z,17.46
2023-04-09T09:26:26.474Z,17.49
2023-04-09T09:29:00.219Z,17.49
2023-04-09T09:31:31.260Z,17.58
2023-04-09T09:34:11.221Z,17.53
2023-04-09T09:36:42.558Z,17.49
2023-04-09T09:39:14.737Z,17.52
2023-04-09T09:41:47.633Z,17.48
2023-04-09T09:44:35.763Z,17.46
2023-04-09T09:47:07.831Z,17.40
2023-04-09T09:49:39.093Z,17.41
2023-04-09T09:52:13.011Z,17.41
2023-04-09T09:54:45.154Z,17.38
2023-04-09T09:57:17.859Z,17.40
2023-04-09T09:59:58.267Z,17.32
2023-04-09T10:02:32.950Z,17.16
2023-04-09T10:05:04.630Z,17.03
2023-04-09T10:07:38.006Z,16.89
2023-04-09T10:10:10.630Z,16.80
2023-04-09T10:12:43.527Z,16.75
2023-04-09T10:15:14.860Z,16.77
2023-04-09T10:17:46.167Z,16.83
2023-04-09T10:20:40.714Z,16.88
2023-04-09T10:23:17.756Z,16.92
2023-04-09T10:25:49.174Z,16.91
2023-04-09T10:28:21.274Z,16.94
2023-04-09T10:30:52.296Z,16.90
2023-04-09T10:33:30.501Z,16.88
2023-04-09T10:36:14.329Z,16.89
2023-04-09T10:38:49.876Z,16.95
2023-04-09T10:41:33.849Z,17.04
2023-04-09T10:44:08.945Z,17.03
2023-04-09T10:46:40.048Z,17.00
2023-04-09T10:49:22.396Z,17.14
2023-04-09T10:52:15.272Z,17.12
2023-04-09T10:54:50.985Z,17.11
2023-04-09T10:57:23.077Z,17.04
2023-04-09T10:59:56.319Z,17.04
2023-04-09T11:02:42.570Z,17.04
2023-04-09T11:05:16.942Z,17.09
2023-04-09T11:08:12.220Z,17.03
2023-04-09T11:10:46.229Z,17.06
2023-04-09T11:13:18.750Z,17.10
2023-04-09T11:15:50.189Z,16.86
2023-04-09T11:18:29.443Z,16.99
2023-04-09T11:21:05.663Z,16.95
2023-04-09T11:23:36.969Z,16.95
2023-04-09T11:26:08.454Z,16.92
2023-04-09T11:28:45.220Z,16.96
2023-04-09T11:31:16.111Z,16.88
2023-04-09T11:33:50.444Z,17.05
2023-04-09T11:36:21.909Z,16.81
2023-04-09T11:38:53.129Z,16.86
2023-04-09T11:41:40.001Z,16.80
2023-04-09T11:44:11.465Z,16.88
2023-04-09T11:46:43.612Z,16.89
2023-04-09T11:49:15.281Z,16.91
2023-04-09T11:51:47.084Z,16.84
2023-04-09T11:54:18.451Z,16.90
2023-04-09T11:56:50.347Z,16.86
2023-04-09T11:59:24.074Z,16.88
2023-04-09T12:02:00.488Z,16.93
2023-04-09T12:04:32.143Z,16.96
2023-04-09T12:07:05.214Z,16.97
2023-04-09T12:09:36.492Z,16.98
2023-04-09T12:12:12.817Z,16.89
2023-04-09T12:14:49.046Z,16.95
2023-04-09T12:17:22.964Z,17.01
2023-04-09T12:19:54.000Z,16.90
2023-04-09T12:22:25.309Z,16.98
2023-04-09T12:24:57.009Z,16.99
2023-04-09T12:27:28.275Z,16.98
2023-04-09T12:30:00.456Z,17.00
2023-04-09T12:32:33.658Z,16.91
2023-04-09T12:35:05.933Z,16.97
2023-04-09T12:37:36.916Z,17.06
2023-04-09T12:40:08.614Z,16.91
2023-04-09T12:42:39.901Z,16.95
2023-04-09T12:45:13.789Z,16.95
2023-04-09T12:47:45.687Z,16.90
2023-04-09T12:50:20.225Z,16.96
2023-04-09T12:52:51.501Z,17.01
2023-04-09T12:55:23.773Z,17.02
2023-04-09T12:57:54.912Z,17.02
2023-04-09T13:00:26.166Z,17.13
2023-04-09T13:02:57.997Z,17.13
2023-04-09T13:05:30.215Z,17.10
2023-04-09T13:08:01.610Z,17.01
2023-04-09T13:10:33.627Z,17.03
2023-04-09T13:13:05.310Z,17.04
2023-04-09T13:15:37.044Z,17.13
2023-04-09T13:18:08.377Z,17.13
2023-04-09T13:20:40.198Z,17.09
2023-04-09T13:23:10.725Z,17.05
2023-04-09T13:25:42.205Z,17.08
2023-04-09T13:28:13.812Z,17.01
2023-04-09T13:30:45.628Z,17.06
2023-04-09T13:33:17.035Z,16.99
2023-04-09T13:35:48.117Z,16.97
2023-04-09T13:38:19.416Z,17.00
2023-04-09T13:40:50.773Z,17.00
2023-04-09T13:43:22.623Z,17.06
2023-04-09T13:45:55.496Z,16.92
2023-04-09T13:48:27.426Z,17.01
2023-04-09T13:50:59.394Z,16.94
2023-04-09T13:53:30.779Z,16.90
2023-04-09T13:56:05.835Z,16.91
2023-04-09T13:58:37.373Z,16.99
2023-04-09T14:01:08.530Z,16.99
2023-04-09T14:03:43.273Z,16.97
2023-04-09T14:06:15.170Z,16.84
2023-04-09T14:08:47.703Z,16.73
2023-04-09T14:11:18.872Z,16.93
2023-04-09T14:13:55.819Z,16.67
2023-04-09T14:16:27.233Z,16.77
2023-04-09T14:18:59.725Z,16.70
2023-04-09T14:21:31.639Z,16.62
2023-04-09T14:24:02.980Z,16.74
2023-04-09T14:26:34.328Z,16.68
2023-04-09T14:29:05.826Z,16.65
2023-04-09T14:31:37.623Z,16.67
2023-04-09T14:34:08.589Z,16.52
2023-04-09T14:36:39.448Z,16.34
2023-04-09T14:39:10.726Z,16.54
2023-04-09T14:41:42.989Z,16.42
2023-04-09T14:44:14.234Z,16.45
2023-04-09T14:46:46.108Z,16.38
2023-04-09T14:49:16.861Z,16.33
2023-04-09T14:51:47.926Z,16.28
2023-04-09T14:54:19.089Z,16.21
2023-04-09T14:56:50.480Z,16.27
2023-04-09T14:59:21.836Z,16.18
2023-04-09T15:01:54.148Z,16.09
2023-04-09T15:04:25.232Z,16.16
2023-04-09T15:06:56.786Z,16.07
2023-04-09T15:09:28.588Z,15.98
2023-04-09T15:11:59.870Z,15.99
2023-04-09T15:14:32.525Z,15.92
2023-04-09T15:17:03.438Z,16.00
2023-04-09T15:19:35.251Z,15.91
2023-04-09T15:22:06.983Z,15.81
2023-04-09T15:24:38.198Z,15.73
2023-04-09T15:27:09.521Z,15.79
2023-04-09T15:29:40.690Z,15.78
2023-04-09T15:32:12.730Z,15.68
2023-04-09T15:34:47.005Z,15.65
2023-04-09T15:37:18.203Z,15.59
2023-04-09T15:39:49.542Z,15.69
2023-04-09T15:42:24.168Z,15.62
2023-04-09T15:44:55.505Z,15.58
2023-04-09T15:47:26.966Z,15.47
2023-04-09T15:50:00.449Z,15.59
2023-04-09T15:52:33.089Z,15.65
2023-04-09T15:55:04.363Z,15.73
2023-04-09T15:57:35.777Z,15.76
2023-04-09T16:00:09.395Z,15.67
2023-04-09T16:02:40.511Z,15.60
2023-04-09T16:05:11.280Z,15.51
2023-04-09T16:07:42.295Z,15.50
2023-04-09T16:10:15.577Z,15.40
2023-04-09T16:12:46.957Z,15.50
2023-04-09T16:15:18.615Z,15.44
2023-04-09T16:17:49.435Z,15.38
2023-04-09T16:20:21.390Z,15.33
2023-04-09T16:22:52.518Z,15.24
2023-04-09T16:25:23.897Z,15.24
2023-04-09T16:27:54.647Z,15.34
2023-04-09T16:30:25.900Z,15.21
2023-04-09T16:32:56.911Z,15.21
2023-04-09T16:35:28.319Z,15.18
2023-04-09T16:37:59.631Z,15.28
2023-04-09T16:40:31.122Z,15.08
2023-04-09T16:43:03.374Z,15.24
2023-04-09T16:45:34.429Z,15.32
2023-04-09T16:48:07.798Z,15.33
2023-04-09T16:50:39.070Z,15.30
2023-04-09T16:53:10.526Z,15.36
2023-04-09T16:55:41.592Z,15.34
2023-04-09T16:58:12.853Z,15.43
2023-04-09T17:00:46.108Z,15.40
2023-04-09T17:03:18.220Z,15.39
2023-04-09T17:05:52.427Z,15.46
2023-04-09T17:08:25.702Z,15.48
2023-04-09T17:11:03.238Z,15.59
2023-04-09T17:13:36.757Z,17.07
2023-04-09T17:16:08.801Z,17.23
2023-04-09T17:18:39.477Z,17.30
2023-04-09T17:21:11.121Z,17.23
2023-04-09T17:23:42.667Z,17.16
2023-04-09T17:26:14.365Z,17.07
2023-04-09T17:28:46.193Z,16.94
2023-04-09T17:31:18.138Z,16.84
2023-04-09T17:33:50.575Z,16.80
2023-04-09T17:36:22.858Z,16.72
2023-04-09T17:38:55.324Z,16.61
2023-04-09T17:41:27.709Z,16.52
2023-04-09T17:43:59.703Z,16.44
2023-04-09T17:46:32.073Z,16.34
2023-04-09T17:49:03.385Z,16.33
2023-04-09T17:51:34.999Z,16.29
2023-04-09T17:54:06.915Z,16.30
2023-04-09T17:56:40.329Z,16.02
2023-04-09T17:59:11.594Z,15.95
2023-04-09T18:01:43.081Z,16.08
2023-04-09T18:04:14.736Z,16.11
2023-04-09T18:06:46.372Z,16.10
2023-04-09T18:09:17.738Z,16.08
2023-04-09T18:11:50.457Z,15.95
2023-04-09T18:14:21.974Z,15.86
2023-04-09T18:16:53.320Z,15.85
2023-04-09T18:19:24.833Z,15.90
2023-04-09T18:21:56.763Z,15.85
2023-04-09T18:24:29.328Z,15.85
2023-04-09T18:27:01.585Z,15.89
2023-04-09T18:29:33.173Z,15.83
2023-04-09T18:32:04.417Z,15.87
2023-04-09T18:34:35.646Z,15.96
2023-04-09T18:37:06.863Z,15.94
2023-04-09T18:39:39.189Z,15.95
2023-04-09T18:42:10.473Z,16.00
2023-04-09T18:44:42.282Z,15.98
2023-04-09T18:47:14.019Z,16.11
2023-04-09T18:49:45.359Z,16.18
2023-04-09T18:52:17.204Z,16.23
2023-04-09T18:54:49.782Z,16.10
2023-04-09T18:57:21.512Z,16.14
2023-04-09T18:59:53.081Z,16.09
2023-04-09T19:02:24.086Z,16.10
2023-04-09T19:04:57.290Z,16.18
2023-04-09T19:07:28.755Z,16.13
2023-04-09T19:10:00.080Z,16.07
2023-04-09T19:12:31.169Z,16.23
2023-04-09T19:15:03.254Z,16.95
2023-04-09T19:17:35.426Z,17.73
2023-04-09T19:20:07.154Z,18.19
2023-04-09T19:22:38.837Z,18.27
2023-04-09T19:25:09.929Z,18.74
2023-04-09T19:27:42.398Z,18.73
2023-04-09T19:30:13.946Z,18.77
2023-04-09T19:32:45.339Z,19.23
2023-04-09T19:35:18.312Z,19.50
2023-04-09T19:37:51.698Z,19.54
2023-04-09T19:40:23.087Z,19.74
2023-04-09T19:42:57.560Z,20.16
2023-04-09T19:45:31.890Z,20.23
2023-04-09T19:48:03.224Z,20.05
2023-04-09T19:50:44.774Z,20.09
2023-04-09T19:53:16.098Z,19.95
2023-04-09T19:55:53.809Z,20.11
2023-04-09T19:58:25.592Z,20.12
2023-04-09T20:00:56.885Z,20.12
2023-04-09T20:03:28.416Z,20.31
2023-04-09T20:05:59.623Z,19.84
2023-04-09T20:08:30.575Z,18.85
2023-04-09T20:11:02.077Z,19.37
2023-04-09T20:13:33.125Z,19.29
2023-04-09T20:16:05.143Z,19.33
2023-04-09T20:18:36.517Z,19.48
2023-04-09T20:21:08.965Z,19.56
2023-04-09T20:23:40.040Z,19.29
2023-04-09T20:26:12.442Z,19.27
2023-04-09T20:28:44.049Z,18.91
2023-04-09T20:31:15.033Z,19.15
2023-04-09T20:33:46.537Z,19.31
2023-04-09T20:36:19.353Z,19.53
2023-04-09T20:38:50.855Z,19.40
2023-04-09T20:41:21.305Z,19.46
2023-04-09T20:43:52.851Z,19.49
2023-04-09T20:46:24.338Z,19.90
2023-04-09T20:48:56.782Z,20.12
2023-04-09T20:51:28.444Z,20.27
2023-04-09T20:54:02.999Z,20.66
2023-04-09T20:56:34.718Z,20.84
2023-04-09T20:59:05.219Z,20.89
2023-04-09T21:01:36.727Z,21.20
2023-04-09T21:04:08.160Z,21.32
2023-04-09T21:06:39.086Z,21.74
2023-04-09T21:09:10.286Z,21.36
2023-04-09T21:11:41.344Z,21.97
2023-04-09T21:14:14.300Z,22.26
2023-04-09T21:16:46.036Z,21.66
2023-04-09T21:19:17.381Z,22.25
2023-04-09T21:21:48.641Z,22.05
2023-04-09T21:24:20.016Z,22.66
2023-04-09T21:26:52.322Z,22.77
2023-04-09T21:29:23.630Z,23.28
2023-04-09T21:31:55.044Z,23.43
2023-04-09T21:34:26.208Z,23.71
2023-04-09T21:36:57.820Z,24.65
2023-04-09T21:39:29.060Z,24.21
2023-04-09T21:42:00.245Z,24.61
2023-04-09T21:44:31.435Z,25.01
2023-04-09T21:47:03.026Z,24.28
2023-04-09T21:49:34.296Z,24.59
2023-04-09T21:52:05.813Z,24.13
2023-04-09T21:54:37.499Z,24.92
2023-04-09T21:57:08.487Z,24.76
2023-04-09T21:59:39.912Z,25.51
2023-04-09T22:02:11.367Z,24.86
2023-04-09T22:04:44.760Z,25.04
2023-04-09T22:07:15.919Z,25.14
2023-04-09T22:09:47.550Z,24.62
2023-04-09T22:12:18.836Z,25.08
2023-04-09T22:14:50.089Z,25.92
2023-04-09T22:17:21.457Z,26.08
2023-04-09T22:19:52.631Z,26.72
2023-04-09T22:22:24.030Z,26.23
2023-04-09T22:24:55.085Z,26.07
2023-04-09T22:27:26.177Z,27.38
2023-04-09T22:29:57.485Z,27.34
2023-04-09T22:32:28.222Z,26.84
2023-04-09T22:34:59.774Z,26.65
2023-04-09T22:37:33.754Z,25.49
2023-04-09T22:40:15.455Z,27.76
2023-04-09T22:42:50.748Z,26.90
2023-04-09T22:45:21.878Z,27.03
2023-04-09T22:47:53.218Z,28.10
2023-04-09T22:50:23.822Z,27.65
2023-04-09T22:52:55.968Z,27.78
2023-04-09T22:55:28.055Z,27.73
2023-04-09T22:57:59.741Z,27.43
2023-04-09T23:00:31.430Z,27.66
2023-04-09T23:03:02.956Z,28.08
2023-04-09T23:05:34.239Z,28.64
2023-04-09T23:08:05.228Z,28.27
2023-04-09T23:10:37.283Z,28.42
2023-04-09T23:13:08.743Z,28.42
2023-04-09T23:15:40.099Z,28.32
2023-04-09T23:18:11.410Z,27.19
2023-04-09T23:20:43.024Z,28.03
2023-04-09T23:23:13.350Z,26.72
2023-04-09T23:25:44.915Z,28.32
2023-04-09T23:28:16.151Z,28.62
2023-04-09T23:30:47.886Z,28.55
2023-04-09T23:33:19.517Z,29.46
2023-04-09T23:35:50.285Z,28.76
2023-04-09T23:38:22.089Z,28.13
2023-04-09T23:40:53.154Z,28.12
2023-04-09T23:43:24.483Z,27.57
2023-04-09T23:45:54.984Z,28.71
2023-04-09T23:48:26.396Z,28.19
2023-04-09T23:50:57.546Z,29.66
2023-04-09T23:53:28.595Z,28.95
2023-04-09T23:56:00.301Z,29.10
2023-04-09T23:58:31.488Z,28.20
